West Delhi, New York
Current Conditions -  °F | °C
As of 8:35 AM on Thursday 23 Oct 2014 (Local Time) from KMSV Reporting Station
Overcast Overcast  
Wind Chill:   Ceiling: 1600
Heat Index:   Visibility: 10mi
Dew Point:   Wind: 14mph
Humidity: 100%   Direction: 340°NNW
Pressure: 29.8"   Gusts: 20mph
Location:  42.3065°N, 74.9298°W
Report Text: KMSV 231235Z AUTO 34012G17KT 10SM BKN016 BKN038 OVC046 07/07 A2980 RMK AO1
Loading
Personal Weather Stations






























Interactive Weather Map
Tropical Storm Tracking
New forecast layout! Learn more

10-Day Weather Forecast

Advertisements
Track Severe Weather on mobile